createdAt,value
2022-10-05T00:00:54.992Z,63.70
2022-10-05T00:03:37.063Z,66.21
2022-10-05T00:06:05.437Z,63.01
2022-10-05T00:08:35.378Z,60.93
2022-10-05T00:11:07.639Z,59.91
2022-10-05T00:13:35.622Z,58.94
2022-10-05T00:16:19.377Z,60.65
2022-10-05T00:18:53.185Z,64.76
2022-10-05T00:21:24.298Z,65.36
2022-10-05T00:23:55.911Z,62.91
2022-10-05T00:26:26.309Z,61.11
2022-10-05T00:28:54.907Z,60.96
2022-10-05T00:31:25.104Z,58.45
2022-10-05T00:33:55.062Z,58.07
2022-10-05T00:36:23.559Z,63.78
2022-10-05T00:38:52.102Z,64.50
2022-10-05T00:41:54.129Z,63.52
2022-10-05T00:44:48.019Z,62.08
2022-10-05T00:47:27.840Z,60.37
2022-10-05T00:50:03.317Z,61.06
2022-10-05T00:52:54.886Z,58.07
2022-10-05T00:55:33.503Z,57.36
2022-10-05T00:58:15.944Z,63.24
2022-10-05T01:01:04.670Z,65.21
2022-10-05T01:04:07.099Z,62.29
2022-10-05T01:07:09.956Z,61.05
2022-10-05T01:09:53.345Z,58.64
2022-10-05T01:12:38.021Z,60.70
2022-10-05T01:15:06.501Z,66.29
2022-10-05T01:18:08.504Z,66.15
2022-10-05T01:20:59.858Z,62.02
2022-10-05T01:23:37.554Z,60.21
2022-10-05T01:26:27.150Z,56.24
2022-10-05T01:29:08.463Z,56.52
2022-10-05T01:32:26.059Z,63.84
2022-10-05T01:34:59.294Z,64.74
2022-10-05T01:37:39.384Z,61.90
2022-10-05T01:40:21.951Z,57.83
2022-10-05T01:42:52.339Z,57.93
2022-10-05T01:45:26.640Z,64.34
2022-10-05T01:48:07.843Z,65.30
2022-10-05T01:51:09.216Z,63.11
2022-10-05T01:54:15.701Z,61.88
2022-10-05T01:56:58.463Z,61.10
2022-10-05T01:59:40.857Z,57.87
2022-10-05T02:02:12.399Z,57.58
2022-10-05T02:05:04.683Z,63.66
2022-10-05T02:07:36.790Z,65.87
2022-10-05T02:10:33.070Z,62.86
2022-10-05T02:13:15.719Z,61.06
2022-10-05T02:15:54.730Z,59.95
2022-10-05T02:18:30.618Z,57.18
2022-10-05T02:21:03.124Z,57.08
2022-10-05T02:23:39.168Z,58.83
2022-10-05T02:26:11.222Z,64.41
2022-10-05T02:28:58.935Z,66.18
2022-10-05T02:31:54.966Z,62.59
2022-10-05T02:34:39.594Z,60.62
2022-10-05T02:38:08.669Z,56.37
2022-10-05T02:40:58.610Z,56.54
2022-10-05T02:43:53.962Z,64.82
2022-10-05T02:46:35.034Z,65.05
2022-10-05T02:49:40.276Z,62.32
2022-10-05T02:52:18.934Z,61.10
2022-10-05T02:54:49.429Z,57.77
2022-10-05T02:57:31.423Z,57.72
2022-10-05T03:00:40.091Z,63.03
2022-10-05T03:03:23.519Z,63.14
2022-10-05T03:06:12.446Z,60.03
2022-10-05T03:08:49.905Z,56.63
2022-10-05T03:11:41.299Z,58.02
2022-10-05T03:14:12.054Z,65.29
2022-10-05T03:17:04.554Z,66.14
2022-10-05T03:19:45.880Z,62.48
2022-10-05T03:22:20.152Z,60.13
2022-10-05T03:24:55.214Z,59.27
2022-10-05T03:27:33.513Z,63.03
2022-10-05T03:30:18.435Z,64.38
2022-10-05T03:33:25.704Z,63.31
2022-10-05T03:36:06.800Z,60.32
2022-10-05T03:38:37.564Z,57.11
2022-10-05T03:41:33.082Z,56.75
2022-10-05T03:44:15.711Z,63.86
2022-10-05T03:46:58.495Z,64.63
2022-10-05T03:49:47.987Z,61.85
2022-10-05T03:52:22.257Z,57.39
2022-10-05T03:54:58.159Z,58.97
2022-10-05T03:57:35.165Z,64.27
2022-10-05T04:00:06.511Z,65.13
2022-10-05T04:03:28.181Z,62.01
2022-10-05T04:06:03.520Z,60.20
2022-10-05T04:08:52.483Z,57.06
2022-10-05T04:11:29.037Z,57.46
2022-10-05T04:14:06.259Z,63.07
2022-10-05T04:17:17.855Z,63.95
2022-10-05T04:20:02.072Z,61.83
2022-10-05T04:22:39.383Z,60.81
2022-10-05T04:25:10.334Z,57.92
2022-10-05T04:27:42.835Z,57.98
2022-10-05T04:30:17.998Z,64.12
2022-10-05T04:32:50.377Z,65.18
2022-10-05T04:35:54.466Z,62.84
2022-10-05T04:38:58.955Z,61.81
2022-10-05T04:41:29.927Z,57.33
2022-10-05T04:44:28.334Z,58.49
2022-10-05T04:47:22.418Z,63.74
2022-10-05T04:50:11.985Z,65.00
2022-10-05T04:53:24.092Z,61.69
2022-10-05T04:55:58.404Z,58.52
2022-10-05T04:58:26.747Z,59.26
2022-10-05T05:00:55.331Z,64.44
2022-10-05T05:03:38.937Z,66.22
2022-10-05T05:06:52.670Z,63.60
2022-10-05T05:09:39.355Z,61.10
2022-10-05T05:12:22.499Z,59.97
2022-10-05T05:14:53.204Z,56.94
2022-10-05T05:17:48.313Z,57.36
2022-10-05T05:20:27.305Z,59.95
2022-10-05T05:23:13.080Z,66.51
2022-10-05T05:25:53.078Z,66.47
2022-10-05T05:28:42.392Z,63.27
2022-10-05T05:31:32.644Z,61.15
2022-10-05T05:34:23.938Z,57.95
2022-10-05T05:37:13.293Z,58.42
2022-10-05T05:40:01.936Z,65.59
2022-10-05T05:43:00.526Z,66.31
2022-10-05T05:45:44.094Z,62.64
2022-10-05T05:48:18.662Z,60.07
2022-10-05T05:50:49.565Z,57.43
2022-10-05T05:53:44.651Z,57.13
2022-10-05T05:56:21.722Z,63.29
2022-10-05T05:59:23.675Z,64.83
2022-10-05T06:01:59.862Z,61.77
2022-10-05T06:04:37.712Z,60.56
2022-10-05T06:07:06.602Z,57.82
2022-10-05T06:09:47.356Z,57.80
2022-10-05T06:12:34.786Z,64.62
2022-10-05T06:15:22.810Z,65.34
2022-10-05T06:17:54.908Z,62.49
2022-10-05T06:20:56.052Z,60.56
2022-10-05T06:23:43.277Z,57.37
2022-10-05T06:26:18.542Z,57.89
2022-10-05T06:28:58.060Z,64.17
2022-10-05T06:32:05.110Z,64.71
2022-10-05T06:34:52.088Z,61.27
2022-10-05T06:37:34.201Z,57.47
2022-10-05T06:40:34.202Z,57.48
2022-10-05T06:43:29.912Z,57.95
2022-10-05T06:46:23.579Z,66.39
2022-10-05T06:49:16.081Z,64.64
2022-10-05T06:52:26.633Z,60.64
2022-10-05T06:55:14.050Z,56.85
2022-10-05T06:58:24.239Z,56.96
2022-10-05T07:01:37.073Z,58.67
2022-10-05T07:04:59.005Z,64.82
2022-10-05T07:07:45.597Z,62.75
2022-10-05T07:10:34.741Z,57.32
2022-10-05T07:13:47.304Z,55.82
2022-10-05T07:16:27.026Z,57.37
2022-10-05T07:18:56.123Z,62.66
2022-10-05T07:21:39.539Z,61.54
2022-10-05T07:24:43.181Z,54.96
2022-10-05T07:27:18.588Z,53.86
2022-10-05T07:30:01.769Z,56.32
2022-10-05T07:32:50.255Z,56.95
2022-10-05T07:35:54.796Z,58.56
2022-10-05T07:38:38.030Z,65.31
2022-10-05T07:41:15.101Z,63.27
2022-10-05T07:44:02.128Z,56.60
2022-10-05T07:46:50.060Z,55.69
2022-10-05T07:49:44.428Z,57.48
2022-10-05T07:52:17.252Z,58.09
2022-10-05T07:54:54.368Z,58.45
2022-10-05T07:58:00.334Z,64.46
2022-10-05T08:00:50.291Z,61.15
2022-10-05T08:03:48.007Z,55.17
2022-10-05T08:06:35.941Z,54.89
2022-10-05T08:09:39.180Z,56.30
2022-10-05T08:12:13.384Z,57.03
2022-10-05T08:14:49.326Z,59.54
2022-10-05T08:17:39.917Z,63.52
2022-10-05T08:20:17.292Z,59.05
2022-10-05T08:22:53.588Z,54.90
2022-10-05T08:25:28.657Z,55.24
2022-10-05T08:28:05.131Z,56.55
2022-10-05T08:30:48.724Z,57.09
2022-10-05T08:33:20.382Z,58.57
2022-10-05T08:36:10.918Z,59.60
2022-10-05T08:38:40.237Z,63.13
2022-10-05T08:41:45.115Z,57.12
2022-10-05T08:44:31.908Z,53.96
2022-10-05T08:47:17.037Z,55.47
2022-10-05T08:49:44.820Z,56.43
2022-10-05T08:52:25.495Z,57.24
2022-10-05T08:55:27.423Z,57.95
2022-10-05T08:58:14.187Z,58.30
2022-10-05T09:01:14.794Z,58.90
2022-10-05T09:04:16.823Z,59.44
2022-10-05T09:07:13.816Z,57.81
2022-10-05T09:09:57.159Z,58.80
2022-10-05T09:12:46.377Z,58.92
2022-10-05T09:15:26.874Z,58.89
2022-10-05T09:18:16.935Z,59.03
2022-10-05T09:21:08.687Z,59.21
2022-10-05T09:23:44.976Z,59.32
2022-10-05T09:26:33.089Z,59.28
2022-10-05T09:29:38.948Z,59.75
2022-10-05T09:32:19.131Z,58.58
2022-10-05T09:34:53.819Z,58.24
2022-10-05T09:37:40.032Z,58.70
2022-10-05T09:40:19.866Z,59.17
2022-10-05T09:43:09.689Z,58.37
2022-10-05T09:46:05.074Z,57.81
2022-10-05T09:49:11.627Z,57.86
2022-10-05T09:51:48.887Z,58.12
2022-10-05T09:54:43.831Z,58.76
2022-10-05T09:57:52.406Z,58.46
2022-10-05T10:00:24.140Z,58.59
2022-10-05T10:02:57.964Z,58.86
2022-10-05T10:05:34.727Z,57.69
2022-10-05T10:08:22.025Z,57.43
2022-10-05T10:11:18.457Z,58.07
2022-10-05T10:13:56.000Z,58.58
2022-10-05T10:16:55.106Z,59.27
2022-10-05T10:19:44.593Z,59.43
2022-10-05T10:22:42.219Z,59.40
2022-10-05T10:25:31.918Z,59.30
2022-10-05T10:28:37.870Z,58.97
2022-10-05T10:31:58.284Z,58.59
2022-10-05T10:34:35.115Z,58.75
2022-10-05T10:37:31.360Z,58.63
2022-10-05T10:40:08.494Z,58.24
2022-10-05T10:43:14.227Z,57.82
2022-10-05T10:46:20.593Z,57.19
2022-10-05T10:49:09.691Z,57.27
2022-10-05T10:51:46.804Z,56.46
2022-10-05T10:54:41.747Z,56.15
2022-10-05T10:57:13.678Z,56.13
2022-10-05T11:00:03.670Z,56.78
2022-10-05T11:02:56.478Z,56.67
2022-10-05T11:05:31.655Z,56.83
2022-10-05T11:08:25.316Z,57.14
2022-10-05T11:10:56.266Z,56.00
2022-10-05T11:13:53.315Z,55.73
2022-10-05T11:16:46.952Z,55.84
2022-10-05T11:20:03.207Z,55.81
2022-10-05T11:22:50.359Z,55.69
2022-10-05T11:25:53.795Z,54.86
2022-10-05T11:28:34.855Z,55.20
2022-10-05T11:31:21.689Z,55.82
2022-10-05T11:34:08.680Z,55.80
2022-10-05T11:36:45.530Z,55.84
2022-10-05T11:39:33.551Z,55.53
2022-10-05T11:42:36.197Z,55.30
2022-10-05T11:45:19.404Z,55.56
2022-10-05T11:47:59.898Z,55.17
2022-10-05T11:50:58.119Z,55.09
2022-10-05T11:53:35.083Z,55.34
2022-10-05T11:56:19.374Z,55.82
2022-10-05T11:59:05.929Z,55.37
2022-10-05T12:02:15.089Z,55.31
2022-10-05T12:05:11.379Z,55.08
2022-10-05T12:08:07.115Z,55.22
2022-10-05T12:11:00.853Z,55.05
2022-10-05T12:13:28.660Z,54.77
2022-10-05T12:16:27.053Z,54.01
2022-10-05T12:19:31.741Z,52.95
2022-10-05T12:22:24.009Z,53.41
2022-10-05T12:25:06.339Z,52.79
2022-10-05T12:27:41.011Z,51.44
2022-10-05T12:30:13.636Z,50.77
2022-10-05T12:33:06.964Z,50.67
2022-10-05T12:35:49.294Z,49.58
2022-10-05T12:38:28.755Z,49.94
2022-10-05T12:41:04.630Z,50.37
2022-10-05T12:43:37.210Z,50.53
2022-10-05T12:46:26.688Z,50.60
2022-10-05T12:49:21.808Z,50.97
2022-10-05T12:52:03.677Z,50.51
2022-10-05T12:55:00.886Z,49.54
2022-10-05T12:57:38.328Z,48.98
2022-10-05T13:00:21.769Z,49.94
2022-10-05T13:02:58.130Z,50.32
2022-10-05T13:05:44.955Z,50.55
2022-10-05T13:08:41.872Z,50.89
2022-10-05T13:11:28.289Z,51.04
2022-10-05T13:14:18.274Z,51.33
2022-10-05T13:16:46.150Z,51.74
2022-10-05T13:19:35.654Z,51.12
2022-10-05T13:22:34.409Z,51.95
2022-10-05T13:25:14.430Z,51.73
2022-10-05T13:27:57.665Z,51.78
2022-10-05T13:30:25.700Z,51.73
2022-10-05T13:33:33.450Z,52.24
2022-10-05T13:36:42.949Z,52.55
2022-10-05T13:39:28.892Z,52.84
2022-10-05T13:42:09.553Z,52.81
2022-10-05T13:44:47.050Z,53.23
2022-10-05T13:47:31.794Z,53.58
2022-10-05T13:50:14.107Z,53.78
2022-10-05T13:52:50.525Z,54.19
2022-10-05T13:55:38.740Z,54.87
2022-10-05T13:58:34.809Z,55.12
2022-10-05T14:01:08.849Z,55.25
2022-10-05T14:03:38.467Z,55.28
2022-10-05T14:06:27.831Z,55.08
2022-10-05T14:09:00.055Z,54.36
2022-10-05T14:11:32.205Z,53.94
2022-10-05T14:14:21.932Z,53.58
2022-10-05T14:16:56.290Z,53.68
2022-10-05T14:19:24.306Z,52.97
2022-10-05T14:22:00.886Z,52.93
2022-10-05T14:24:43.574Z,52.60
2022-10-05T14:27:30.798Z,52.70
2022-10-05T14:30:12.388Z,52.60
2022-10-05T14:32:50.563Z,52.71
2022-10-05T14:35:23.038Z,53.01
2022-10-05T14:37:53.833Z,52.81
2022-10-05T14:40:27.547Z,52.73
2022-10-05T14:42:56.641Z,52.84
2022-10-05T14:45:29.994Z,53.05
2022-10-05T14:48:01.821Z,53.13
2022-10-05T14:50:31.582Z,53.62
2022-10-05T14:53:11.734Z,54.07
2022-10-05T14:55:53.008Z,54.21
2022-10-05T14:58:40.318Z,54.50
2022-10-05T15:01:20.465Z,54.87
2022-10-05T15:04:06.149Z,55.15
2022-10-05T15:06:47.167Z,55.42
2022-10-05T15:09:21.097Z,55.57
2022-10-05T15:11:52.601Z,56.12
2022-10-05T15:14:43.542Z,56.75
2022-10-05T15:17:27.162Z,56.62
2022-10-05T15:20:24.735Z,57.09
2022-10-05T15:23:23.949Z,57.43
2022-10-05T15:26:14.231Z,58.16
2022-10-05T15:28:48.427Z,58.45
2022-10-05T15:31:54.679Z,58.79
2022-10-05T15:34:30.814Z,59.09
2022-10-05T15:37:07.916Z,59.76
2022-10-05T15:39:44.369Z,60.39
2022-10-05T15:42:16.993Z,60.81
2022-10-05T15:45:00.005Z,61.30
2022-10-05T15:48:06.729Z,67.43
2022-10-05T15:50:55.549Z,70.94
2022-10-05T15:53:28.125Z,64.62
2022-10-05T15:56:29.145Z,57.94
2022-10-05T15:59:18.734Z,55.82
2022-10-05T16:01:56.686Z,55.83
2022-10-05T16:04:50.179Z,56.14
2022-10-05T16:07:44.720Z,56.48
2022-10-05T16:10:23.519Z,57.38
2022-10-05T16:13:06.135Z,57.96
2022-10-05T16:15:43.406Z,59.14
2022-10-05T16:18:36.004Z,59.57
2022-10-05T16:21:22.727Z,60.11
2022-10-05T16:24:20.849Z,65.51
2022-10-05T16:26:54.978Z,68.65
2022-10-05T16:29:48.154Z,64.88
2022-10-05T16:32:42.958Z,58.90
2022-10-05T16:35:36.217Z,56.48
2022-10-05T16:38:17.473Z,56.83
2022-10-05T16:41:27.574Z,58.16
2022-10-05T16:44:11.062Z,58.36
2022-10-05T16:46:58.187Z,59.74
2022-10-05T16:49:41.405Z,65.97
2022-10-05T16:52:30.220Z,67.94
2022-10-05T16:55:04.840Z,63.84
2022-10-05T16:57:46.811Z,58.18
2022-10-05T17:00:44.318Z,56.90
2022-10-05T17:03:42.425Z,58.20
2022-10-05T17:06:29.544Z,60.70
2022-10-05T17:09:29.226Z,66.34
2022-10-05T17:12:32.461Z,67.34
2022-10-05T17:15:21.124Z,63.78
2022-10-05T17:18:07.339Z,59.55
2022-10-05T17:20:44.488Z,58.06
2022-10-05T17:23:21.346Z,59.48
2022-10-05T17:25:55.524Z,64.17
2022-10-05T17:28:37.701Z,66.19
2022-10-05T17:31:13.986Z,63.40
2022-10-05T17:34:00.303Z,59.17
2022-10-05T17:36:40.585Z,57.35
2022-10-05T17:39:49.052Z,59.87
2022-10-05T17:42:26.834Z,66.03
2022-10-05T17:45:20.860Z,66.16
2022-10-05T17:47:59.614Z,62.80
2022-10-05T17:50:56.262Z,58.97
2022-10-05T17:53:56.748Z,59.84
2022-10-05T17:56:24.988Z,64.20
2022-10-05T17:58:59.859Z,64.23
2022-10-05T18:01:31.273Z,62.83
2022-10-05T18:04:12.196Z,59.01
2022-10-05T18:06:48.230Z,57.28
2022-10-05T18:09:21.561Z,61.10
2022-10-05T18:12:09.114Z,66.00
2022-10-05T18:14:58.207Z,66.35
2022-10-05T18:17:52.182Z,62.94
2022-10-05T18:20:29.852Z,58.60
2022-10-05T18:23:07.913Z,61.74
2022-10-05T18:25:55.080Z,65.54
2022-10-05T18:28:26.052Z,65.52
2022-10-05T18:31:13.165Z,62.98
2022-10-05T18:34:02.092Z,58.95
2022-10-05T18:36:43.671Z,60.79
2022-10-05T18:39:49.718Z,64.78
2022-10-05T18:42:27.492Z,63.21
2022-10-05T18:45:06.747Z,61.52
2022-10-05T18:48:07.352Z,60.38
2022-10-05T18:51:07.259Z,58.75
2022-10-05T18:54:03.749Z,59.98
2022-10-05T18:56:46.865Z,65.61
2022-10-05T18:59:36.569Z,64.40
2022-10-05T19:02:31.310Z,62.85
2022-10-05T19:05:46.272Z,61.90
2022-10-05T19:08:39.202Z,58.11
2022-10-05T19:11:19.875Z,58.20
2022-10-05T19:14:13.287Z,63.69
2022-10-05T19:16:50.900Z,65.88
2022-10-05T19:19:33.606Z,63.42
2022-10-05T19:22:39.555Z,61.35
2022-10-05T19:25:30.092Z,58.08
2022-10-05T19:28:23.418Z,60.32
2022-10-05T19:31:05.858Z,65.75
2022-10-05T19:33:36.972Z,63.92
2022-10-05T19:36:56.500Z,63.28
2022-10-05T19:39:48.238Z,62.23
2022-10-05T19:42:50.271Z,60.69
2022-10-05T19:45:27.083Z,57.72
2022-10-05T19:47:57.849Z,57.98
2022-10-05T19:50:30.491Z,63.52
2022-10-05T19:53:05.033Z,64.69
2022-10-05T19:55:41.810Z,62.66
2022-10-05T19:58:30.089Z,60.62
2022-10-05T20:01:11.351Z,57.26
2022-10-05T20:03:41.402Z,57.03
2022-10-05T20:06:11.085Z,58.44
2022-10-05T20:08:47.365Z,63.72
2022-10-05T20:11:27.727Z,64.23
2022-10-05T20:13:55.497Z,60.92
2022-10-05T20:16:44.967Z,57.57
2022-10-05T20:19:50.086Z,57.11
2022-10-05T20:22:34.837Z,61.68
2022-10-05T20:25:05.923Z,66.38
2022-10-05T20:27:44.495Z,64.63
2022-10-05T20:30:17.075Z,61.47
2022-10-05T20:32:49.609Z,58.46
2022-10-05T20:35:23.363Z,58.06
2022-10-05T20:37:51.267Z,63.53
2022-10-05T20:40:20.403Z,65.33
2022-10-05T20:42:48.311Z,61.83
2022-10-05T20:45:16.193Z,58.28
2022-10-05T20:47:46.830Z,58.28
2022-10-05T20:50:15.452Z,59.77
2022-10-05T20:52:43.384Z,65.67
2022-10-05T20:55:12.421Z,66.91
2022-10-05T20:57:46.213Z,63.75
2022-10-05T21:00:14.442Z,61.43
2022-10-05T21:02:42.311Z,58.31
2022-10-05T21:05:10.430Z,57.43
2022-10-05T21:07:38.412Z,59.47
2022-10-05T21:10:06.948Z,64.86
2022-10-05T21:12:34.939Z,66.18
2022-10-05T21:15:06.201Z,62.42
2022-10-05T21:17:34.782Z,59.27
2022-10-05T21:20:02.717Z,58.59
2022-10-05T21:22:31.217Z,63.71
2022-10-05T21:24:59.119Z,65.48
2022-10-05T21:27:27.028Z,62.48
2022-10-05T21:29:54.941Z,58.73
2022-10-05T21:32:22.875Z,58.24
2022-10-05T21:34:50.723Z,59.40
2022-10-05T21:37:19.979Z,65.23
2022-10-05T21:39:48.090Z,67.11
2022-10-05T21:42:15.960Z,62.58
2022-10-05T21:44:43.819Z,61.89
2022-10-05T21:47:11.737Z,61.20
2022-10-05T21:49:41.313Z,58.60
2022-10-05T21:52:09.212Z,57.39
2022-10-05T21:54:37.028Z,61.06
2022-10-05T21:57:05.307Z,64.37
2022-10-05T21:59:34.560Z,66.09
2022-10-05T22:02:02.520Z,63.93
2022-10-05T22:04:30.445Z,61.79
2022-10-05T22:06:58.405Z,58.92
2022-10-05T22:09:26.391Z,58.04
2022-10-05T22:11:55.040Z,63.19
2022-10-05T22:14:22.952Z,64.98
2022-10-05T22:16:50.907Z,62.87
2022-10-05T22:19:20.534Z,61.72
2022-10-05T22:21:48.415Z,62.45
2022-10-05T22:24:16.318Z,61.80
2022-10-05T22:26:47.804Z,60.73
2022-10-05T22:29:17.041Z,59.19
2022-10-05T22:31:48.947Z,62.37
2022-10-05T22:34:18.310Z,64.53
2022-10-05T22:36:47.622Z,62.93
2022-10-05T22:39:16.876Z,63.06
2022-10-05T22:41:44.960Z,61.41
2022-10-05T22:44:12.909Z,60.53
2022-10-05T22:46:40.829Z,61.37
2022-10-05T22:49:08.930Z,60.31
2022-10-05T22:51:36.835Z,58.21
2022-10-05T22:54:04.895Z,57.93
2022-10-05T22:56:32.782Z,63.32
2022-10-05T22:59:00.700Z,65.16
2022-10-05T23:01:28.610Z,63.01
2022-10-05T23:03:57.392Z,58.43
2022-10-05T23:06:28.314Z,58.04
2022-10-05T23:08:56.976Z,62.95
2022-10-05T23:11:27.259Z,63.96
2022-10-05T23:13:57.108Z,61.58
2022-10-05T23:16:27.774Z,60.26
2022-10-05T23:18:56.444Z,57.81
2022-10-05T23:21:27.198Z,60.57
2022-10-05T23:23:55.098Z,64.76
2022-10-05T23:26:25.474Z,65.10
2022-10-05T23:28:54.273Z,63.29
2022-10-05T23:31:25.807Z,61.70
2022-10-05T23:33:54.204Z,61.11
2022-10-05T23:36:25.179Z,60.97
2022-10-05T23:38:53.523Z,59.84
2022-10-05T23:41:21.401Z,58.72
2022-10-05T23:43:50.096Z,64.92
2022-10-05T23:46:18.203Z,65.46
2022-10-05T23:48:46.151Z,63.62
2022-10-05T23:51:14.508Z,62.01
2022-10-05T23:53:42.634Z,62.53
2022-10-05T23:56:11.153Z,61.49
2022-10-05T23:58:39.682Z,61.31
